EGPG weather

Cumbernauld Airport
Cumbernauld, Scotland, United Kingdom

Public forecast

Using degrees Celsius for public forecast. Weather courtesy of forecast.io.

Closest aviation weather report (METAR) to Cumbernauld Airport

Closest report is Glasgow International Airport, 16.6 nm (30.7 km) WSW. Retrieved 2019/10/16 10:20 UTC (9 minutes ago):

EGPF 161020Z AUTO 28009KT 9999 FEW028 SCT032 OVC042 10/09 Q0996

Closest aviation forecast (TAF) to Cumbernauld Airport

Closest forecast is Glasgow International Airport, 16.6 nm (30.7 km) WSW. Retrieved 2019/10/16 06:00 UTC (4 hours ago):

TAF EGPF 160501Z 1606/1706 07008KT 9999 SCT030 TEMPO 1606/1610 6000 -RADZ BKN012 PROB30 TEMPO 1606/1610 4000 RADZ BKN008 BECMG 1607/1610 26010KT BECMG 1618/1621 VRB04KT PROB30 TEMPO 1702/1706 7000 SHRA